sensor_id;sensor_type;location;lat;lon;timestamp;P1;durP1;ratioP1;P2;durP2;ratioP2
50225;SDS011;36113;50.742;6.432;2023-07-20T00:02:03;4.77;;;3.77;;
50225;SDS011;36113;50.742;6.432;2023-07-20T00:04:30;3.97;;;3.63;;
50225;SDS011;36113;50.742;6.432;2023-07-20T00:06:55;6.73;;;3.87;;
50225;SDS011;36113;50.742;6.432;2023-07-20T00:09:21;5.83;;;3.83;;
50225;SDS011;36113;50.742;6.432;2023-07-20T00:11:49;4.67;;;3.67;;
50225;SDS011;36113;50.742;6.432;2023-07-20T00:14:16;5.65;;;3.72;;
50225;SDS011;36113;50.742;6.432;2023-07-20T00:16:42;4.33;;;3.77;;
50225;SDS011;36113;50.742;6.432;2023-07-20T00:19:07;7.03;;;3.67;;
50225;SDS011;36113;50.742;6.432;2023-07-20T00:21:34;4.72;;;4.15;;
50225;SDS011;36113;50.742;6.432;2023-07-20T00:23:59;4.70;;;3.60;;
50225;SDS011;36113;50.742;6.432;2023-07-20T00:26:24;5.83;;;3.93;;
50225;SDS011;36113;50.742;6.432;2023-07-20T00:28:50;5.67;;;4.50;;
50225;SDS011;36113;50.742;6.432;2023-07-20T00:31:16;5.00;;;4.35;;
50225;SDS011;36113;50.742;6.432;2023-07-20T00:33:42;6.90;;;4.00;;
50225;SDS011;36113;50.742;6.432;2023-07-20T00:36:07;6.10;;;4.03;;
50225;SDS011;36113;50.742;6.432;2023-07-20T00:38:32;8.63;;;4.53;;
50225;SDS011;36113;50.742;6.432;2023-07-20T00:40:58;4.53;;;3.83;;
50225;SDS011;36113;50.742;6.432;2023-07-20T00:43:23;7.50;;;4.00;;
50225;SDS011;36113;50.742;6.432;2023-07-20T00:45:48;5.97;;;3.70;;
50225;SDS011;36113;50.742;6.432;2023-07-20T00:48:14;4.20;;;3.80;;
50225;SDS011;36113;50.742;6.432;2023-07-20T00:50:40;4.47;;;3.70;;
50225;SDS011;36113;50.742;6.432;2023-07-20T00:53:05;5.70;;;4.17;;
50225;SDS011;36113;50.742;6.432;2023-07-20T00:55:32;6.07;;;4.00;;
50225;SDS011;36113;50.742;6.432;2023-07-20T00:57:57;4.37;;;3.53;;
50225;SDS011;36113;50.742;6.432;2023-07-20T01:00:24;4.57;;;3.90;;
50225;SDS011;36113;50.742;6.432;2023-07-20T01:02:50;4.73;;;3.73;;
50225;SDS011;36113;50.742;6.432;2023-07-20T01:05:16;5.22;;;3.97;;
50225;SDS011;36113;50.742;6.432;2023-07-20T01:07:43;8.97;;;3.70;;
50225;SDS011;36113;50.742;6.432;2023-07-20T01:10:27;4.00;;;3.60;;
50225;SDS011;36113;50.742;6.432;2023-07-20T01:12:57;4.32;;;3.90;;
50225;SDS011;36113;50.742;6.432;2023-07-20T01:15:22;7.77;;;4.00;;
50225;SDS011;36113;50.742;6.432;2023-07-20T01:17:48;4.20;;;3.80;;
50225;SDS011;36113;50.742;6.432;2023-07-20T01:20:14;6.90;;;3.57;;
50225;SDS011;36113;50.742;6.432;2023-07-20T01:25:33;7.00;;;4.03;;
50225;SDS011;36113;50.742;6.432;2023-07-20T01:33:17;3.97;;;3.55;;
50225;SDS011;36113;50.742;6.432;2023-07-20T01:35:44;4.03;;;3.58;;
50225;SDS011;36113;50.742;6.432;2023-07-20T01:38:13;4.13;;;3.33;;
50225;SDS011;36113;50.742;6.432;2023-07-20T01:40:39;6.47;;;3.27;;
50225;SDS011;36113;50.742;6.432;2023-07-20T01:43:05;4.97;;;3.78;;
50225;SDS011;36113;50.742;6.432;2023-07-20T01:45:31;3.15;;;2.95;;
50225;SDS011;36113;50.742;6.432;2023-07-20T01:47:56;3.40;;;3.10;;
50225;SDS011;36113;50.742;6.432;2023-07-20T01:50:22;5.03;;;3.80;;
50225;SDS011;36113;50.742;6.432;2023-07-20T01:52:47;5.18;;;2.95;;
50225;SDS011;36113;50.742;6.432;2023-07-20T01:55:13;5.17;;;3.03;;
50225;SDS011;36113;50.742;6.432;2023-07-20T01:57:38;3.43;;;3.10;;
50225;SDS011;36113;50.742;6.432;2023-07-20T02:00:03;9.20;;;3.37;;
50225;SDS011;36113;50.742;6.432;2023-07-20T02:02:29;4.73;;;3.27;;
50225;SDS011;36113;50.742;6.432;2023-07-20T02:04:55;4.93;;;3.27;;
50225;SDS011;36113;50.742;6.432;2023-07-20T02:07:20;5.67;;;3.57;;
50225;SDS011;36113;50.742;6.432;2023-07-20T02:09:45;2.90;;;2.65;;
50225;SDS011;36113;50.742;6.432;2023-07-20T02:12:11;4.87;;;3.00;;
50225;SDS011;36113;50.742;6.432;2023-07-20T02:14:36;8.40;;;3.30;;
50225;SDS011;36113;50.742;6.432;2023-07-20T02:17:01;4.83;;;2.53;;
50225;SDS011;36113;50.742;6.432;2023-07-20T02:19:27;3.70;;;3.40;;
50225;SDS011;36113;50.742;6.432;2023-07-20T02:21:54;7.03;;;3.33;;
50225;SDS011;36113;50.742;6.432;2023-07-20T02:24:19;4.03;;;3.00;;
50225;SDS011;36113;50.742;6.432;2023-07-20T02:26:44;3.80;;;2.57;;
50225;SDS011;36113;50.742;6.432;2023-07-20T02:29:10;5.55;;;3.20;;
50225;SDS011;36113;50.742;6.432;2023-07-20T02:31:36;4.00;;;2.53;;
50225;SDS011;36113;50.742;6.432;2023-07-20T02:34:04;5.53;;;2.90;;
50225;SDS011;36113;50.742;6.432;2023-07-20T02:36:33;6.15;;;3.00;;
50225;SDS011;36113;50.742;6.432;2023-07-20T02:38:59;4.70;;;2.92;;
50225;SDS011;36113;50.742;6.432;2023-07-20T02:41:25;8.88;;;3.08;;
50225;SDS011;36113;50.742;6.432;2023-07-20T02:43:50;7.15;;;3.22;;
50225;SDS011;36113;50.742;6.432;2023-07-20T02:46:15;7.63;;;3.03;;
50225;SDS011;36113;50.742;6.432;2023-07-20T02:48:41;4.63;;;2.88;;
50225;SDS011;36113;50.742;6.432;2023-07-20T02:51:06;5.10;;;3.40;;
50225;SDS011;36113;50.742;6.432;2023-07-20T02:53:32;6.23;;;3.23;;
50225;SDS011;36113;50.742;6.432;2023-07-20T02:55:58;3.65;;;3.35;;
50225;SDS011;36113;50.742;6.432;2023-07-20T02:58:23;5.55;;;2.95;;
50225;SDS011;36113;50.742;6.432;2023-07-20T03:00:48;11.00;;;3.60;;
50225;SDS011;36113;50.742;6.432;2023-07-20T03:03:14;5.30;;;3.63;;
50225;SDS011;36113;50.742;6.432;2023-07-20T03:05:42;4.90;;;3.23;;
50225;SDS011;36113;50.742;6.432;2023-07-20T03:08:07;5.05;;;3.33;;
50225;SDS011;36113;50.742;6.432;2023-07-20T03:10:33;7.38;;;3.00;;
50225;SDS011;36113;50.742;6.432;2023-07-20T03:12:58;7.40;;;3.33;;
50225;SDS011;36113;50.742;6.432;2023-07-20T03:15:23;4.60;;;3.20;;
50225;SDS011;36113;50.742;6.432;2023-07-20T03:17:48;6.87;;;3.40;;
50225;SDS011;36113;50.742;6.432;2023-07-20T03:20:14;9.80;;;3.30;;
50225;SDS011;36113;50.742;6.432;2023-07-20T03:22:39;6.10;;;3.30;;
50225;SDS011;36113;50.742;6.432;2023-07-20T03:25:05;3.67;;;3.38;;
50225;SDS011;36113;50.742;6.432;2023-07-20T03:27:30;4.33;;;3.00;;
50225;SDS011;36113;50.742;6.432;2023-07-20T03:29:55;7.68;;;3.45;;
50225;SDS011;36113;50.742;6.432;2023-07-20T03:32:21;4.73;;;3.80;;
50225;SDS011;36113;50.742;6.432;2023-07-20T03:34:46;7.00;;;2.97;;
50225;SDS011;36113;50.742;6.432;2023-07-20T03:37:12;7.40;;;3.22;;
50225;SDS011;36113;50.742;6.432;2023-07-20T03:39:38;4.13;;;3.40;;
50225;SDS011;36113;50.742;6.432;2023-07-20T03:42:03;3.92;;;3.00;;
50225;SDS011;36113;50.742;6.432;2023-07-20T03:44:28;9.07;;;3.37;;
50225;SDS011;36113;50.742;6.432;2023-07-20T03:46:54;11.10;;;3.70;;
50225;SDS011;36113;50.742;6.432;2023-07-20T03:49:19;7.93;;;4.10;;
50225;SDS011;36113;50.742;6.432;2023-07-20T03:51:45;6.93;;;3.58;;
50225;SDS011;36113;50.742;6.432;2023-07-20T03:54:10;9.47;;;4.23;;
50225;SDS011;36113;50.742;6.432;2023-07-20T03:56:35;4.82;;;4.07;;
50225;SDS011;36113;50.742;6.432;2023-07-20T03:59:01;7.70;;;4.90;;
50225;SDS011;36113;50.742;6.432;2023-07-20T04:01:26;6.27;;;4.13;;
50225;SDS011;36113;50.742;6.432;2023-07-20T04:03:52;8.60;;;5.63;;
50225;SDS011;36113;50.742;6.432;2023-07-20T04:06:17;13.47;;;5.33;;
50225;SDS011;36113;50.742;6.432;2023-07-20T04:08:43;11.00;;;5.32;;
50225;SDS011;36113;50.742;6.432;2023-07-20T04:11:09;9.68;;;5.43;;
50225;SDS011;36113;50.742;6.432;2023-07-20T04:13:34;7.67;;;4.93;;
50225;SDS011;36113;50.742;6.432;2023-07-20T04:16:00;7.13;;;5.57;;
50225;SDS011;36113;50.742;6.432;2023-07-20T04:18:25;6.38;;;4.78;;
50225;SDS011;36113;50.742;6.432;2023-07-20T04:20:50;8.03;;;5.73;;
50225;SDS011;36113;50.742;6.432;2023-07-20T04:23:16;7.23;;;6.00;;
50225;SDS011;36113;50.742;6.432;2023-07-20T04:25:42;13.00;;;6.87;;
50225;SDS011;36113;50.742;6.432;2023-07-20T04:28:07;16.00;;;7.50;;
50225;SDS011;36113;50.742;6.432;2023-07-20T04:30:34;16.63;;;7.33;;
50225;SDS011;36113;50.742;6.432;2023-07-20T04:33:00;10.88;;;7.28;;
50225;SDS011;36113;50.742;6.432;2023-07-20T04:35:45;14.70;;;7.53;;
50225;SDS011;36113;50.742;6.432;2023-07-20T04:38:17;11.23;;;7.10;;
50225;SDS011;36113;50.742;6.432;2023-07-20T04:40:46;12.30;;;7.10;;
50225;SDS011;36113;50.742;6.432;2023-07-20T04:43:17;14.80;;;8.48;;
50225;SDS011;36113;50.742;6.432;2023-07-20T04:45:43;15.02;;;8.40;;
50225;SDS011;36113;50.742;6.432;2023-07-20T04:48:09;17.02;;;9.23;;
50225;SDS011;36113;50.742;6.432;2023-07-20T04:50:42;15.73;;;9.07;;
50225;SDS011;36113;50.742;6.432;2023-07-20T04:53:09;14.02;;;9.15;;
50225;SDS011;36113;50.742;6.432;2023-07-20T04:55:35;11.68;;;8.48;;
50225;SDS011;36113;50.742;6.432;2023-07-20T04:58:02;15.80;;;10.07;;
50225;SDS011;36113;50.742;6.432;2023-07-20T05:00:28;14.43;;;8.95;;
50225;SDS011;36113;50.742;6.432;2023-07-20T05:02:54;21.40;;;10.70;;
50225;SDS011;36113;50.742;6.432;2023-07-20T05:05:19;12.27;;;9.53;;
50225;SDS011;36113;50.742;6.432;2023-07-20T05:07:45;13.20;;;9.60;;
50225;SDS011;36113;50.742;6.432;2023-07-20T05:10:10;13.70;;;8.67;;
50225;SDS011;36113;50.742;6.432;2023-07-20T05:12:36;16.27;;;9.10;;
50225;SDS011;36113;50.742;6.432;2023-07-20T05:15:01;15.87;;;9.77;;
50225;SDS011;36113;50.742;6.432;2023-07-20T05:17:28;10.43;;;8.27;;
50225;SDS011;36113;50.742;6.432;2023-07-20T05:19:54;14.52;;;9.27;;
50225;SDS011;36113;50.742;6.432;2023-07-20T05:22:19;14.98;;;8.80;;
50225;SDS011;36113;50.742;6.432;2023-07-20T05:24:45;14.33;;;8.50;;
50225;SDS011;36113;50.742;6.432;2023-07-20T05:27:10;10.87;;;8.33;;
50225;SDS011;36113;50.742;6.432;2023-07-20T05:29:35;8.83;;;7.97;;
50225;SDS011;36113;50.742;6.432;2023-07-20T05:32:01;11.90;;;9.20;;
50225;SDS011;36113;50.742;6.432;2023-07-20T05:34:27;10.20;;;7.88;;
50225;SDS011;36113;50.742;6.432;2023-07-20T05:36:53;13.13;;;7.80;;
50225;SDS011;36113;50.742;6.432;2023-07-20T05:39:18;11.13;;;8.13;;
50225;SDS011;36113;50.742;6.432;2023-07-20T05:41:43;8.73;;;7.57;;
50225;SDS011;36113;50.742;6.432;2023-07-20T05:44:09;12.43;;;7.70;;
50225;SDS011;36113;50.742;6.432;2023-07-20T05:46:34;11.20;;;7.50;;
50225;SDS011;36113;50.742;6.432;2023-07-20T05:49:00;9.63;;;7.43;;
50225;SDS011;36113;50.742;6.432;2023-07-20T05:51:25;9.50;;;7.10;;
50225;SDS011;36113;50.742;6.432;2023-07-20T05:53:53;8.97;;;7.60;;
50225;SDS011;36113;50.742;6.432;2023-07-20T05:56:18;10.73;;;7.03;;
50225;SDS011;36113;50.742;6.432;2023-07-20T05:58:44;10.03;;;7.13;;
50225;SDS011;36113;50.742;6.432;2023-07-20T06:01:09;7.60;;;6.47;;
50225;SDS011;36113;50.742;6.432;2023-07-20T06:03:34;10.90;;;7.13;;
50225;SDS011;36113;50.742;6.432;2023-07-20T06:06:00;11.63;;;7.07;;
50225;SDS011;36113;50.742;6.432;2023-07-20T06:08:27;9.02;;;6.75;;
50225;SDS011;36113;50.742;6.432;2023-07-20T06:10:53;9.60;;;6.43;;
50225;SDS011;36113;50.742;6.432;2023-07-20T06:13:19;7.40;;;6.70;;
50225;SDS011;36113;50.742;6.432;2023-07-20T06:15:44;8.87;;;6.50;;
50225;SDS011;36113;50.742;6.432;2023-07-20T06:18:10;10.37;;;5.97;;
50225;SDS011;36113;50.742;6.432;2023-07-20T06:20:35;7.13;;;6.20;;
50225;SDS011;36113;50.742;6.432;2023-07-20T06:23:00;7.03;;;6.30;;
50225;SDS011;36113;50.742;6.432;2023-07-20T06:25:26;11.77;;;6.83;;
50225;SDS011;36113;50.742;6.432;2023-07-20T06:27:51;7.50;;;6.40;;
50225;SDS011;36113;50.742;6.432;2023-07-20T06:30:17;7.27;;;6.10;;
50225;SDS011;36113;50.742;6.432;2023-07-20T06:32:42;9.52;;;5.93;;
50225;SDS011;36113;50.742;6.432;2023-07-20T06:35:08;12.50;;;6.40;;
50225;SDS011;36113;50.742;6.432;2023-07-20T06:37:33;8.00;;;6.23;;
50225;SDS011;36113;50.742;6.432;2023-07-20T06:39:59;7.80;;;6.23;;
50225;SDS011;36113;50.742;6.432;2023-07-20T06:42:24;11.07;;;6.43;;
50225;SDS011;36113;50.742;6.432;2023-07-20T06:44:50;8.67;;;6.17;;
50225;SDS011;36113;50.742;6.432;2023-07-20T06:47:15;6.60;;;5.73;;
50225;SDS011;36113;50.742;6.432;2023-07-20T06:49:41;8.50;;;5.43;;
50225;SDS011;36113;50.742;6.432;2023-07-20T06:52:06;7.60;;;6.03;;
50225;SDS011;36113;50.742;6.432;2023-07-20T06:54:32;7.77;;;5.70;;
50225;SDS011;36113;50.742;6.432;2023-07-20T06:56:57;12.10;;;5.20;;
50225;SDS011;36113;50.742;6.432;2023-07-20T06:59:22;8.93;;;5.23;;
50225;SDS011;36113;50.742;6.432;2023-07-20T07:01:49;8.30;;;6.13;;
50225;SDS011;36113;50.742;6.432;2023-07-20T07:04:14;6.50;;;5.70;;
50225;SDS011;36113;50.742;6.432;2023-07-20T07:06:40;9.07;;;6.27;;
50225;SDS011;36113;50.742;6.432;2023-07-20T07:09:05;7.57;;;5.57;;
50225;SDS011;36113;50.742;6.432;2023-07-20T07:11:31;7.80;;;5.40;;
50225;SDS011;36113;50.742;6.432;2023-07-20T07:13:56;5.57;;;5.10;;
50225;SDS011;36113;50.742;6.432;2023-07-20T07:16:21;4.97;;;4.47;;
50225;SDS011;36113;50.742;6.432;2023-07-20T07:18:47;5.87;;;5.27;;
50225;SDS011;36113;50.742;6.432;2023-07-20T07:21:15;9.10;;;5.60;;
50225;SDS011;36113;50.742;6.432;2023-07-20T07:23:40;10.90;;;5.50;;
50225;SDS011;36113;50.742;6.432;2023-07-20T07:26:05;5.70;;;5.20;;
50225;SDS011;36113;50.742;6.432;2023-07-20T07:28:31;6.57;;;4.40;;
50225;SDS011;36113;50.742;6.432;2023-07-20T07:30:59;5.90;;;4.78;;
50225;SDS011;36113;50.742;6.432;2023-07-20T07:33:25;5.73;;;4.37;;
50225;SDS011;36113;50.742;6.432;2023-07-20T07:35:51;4.63;;;4.33;;
50225;SDS011;36113;50.742;6.432;2023-07-20T07:38:17;7.32;;;4.35;;
50225;SDS011;36113;50.742;6.432;2023-07-20T07:40:43;5.47;;;4.97;;
50225;SDS011;36113;50.742;6.432;2023-07-20T07:43:08;5.50;;;4.53;;
50225;SDS011;36113;50.742;6.432;2023-07-20T07:45:34;12.63;;;5.03;;
50225;SDS011;36113;50.742;6.432;2023-07-20T07:48:03;5.30;;;4.53;;
50225;SDS011;36113;50.742;6.432;2023-07-20T07:50:29;6.10;;;4.30;;
50225;SDS011;36113;50.742;6.432;2023-07-20T07:52:54;6.30;;;3.97;;
50225;SDS011;36113;50.742;6.432;2023-07-20T07:55:20;4.47;;;4.07;;
50225;SDS011;36113;50.742;6.432;2023-07-20T07:57:45;2.90;;;2.70;;
50225;SDS011;36113;50.742;6.432;2023-07-20T08:02:39;3.80;;;2.60;;
50225;SDS011;36113;50.742;6.432;2023-07-20T08:07:32;2.95;;;2.75;;
50225;SDS011;36113;50.742;6.432;2023-07-20T08:09:57;3.70;;;2.70;;
50225;SDS011;36113;50.742;6.432;2023-07-20T08:12:22;4.40;;;2.80;;
50225;SDS011;36113;50.742;6.432;2023-07-20T08:14:48;5.60;;;3.00;;
50225;SDS011;36113;50.742;6.432;2023-07-20T08:17:13;2.43;;;2.23;;
50225;SDS011;36113;50.742;6.432;2023-07-20T08:19:39;2.40;;;2.27;;
50225;SDS011;36113;50.742;6.432;2023-07-20T08:22:06;2.50;;;2.30;;
50225;SDS011;36113;50.742;6.432;2023-07-20T08:24:32;3.17;;;2.00;;
50225;SDS011;36113;50.742;6.432;2023-07-20T08:26:57;3.07;;;2.10;;
50225;SDS011;36113;50.742;6.432;2023-07-20T08:29:23;4.13;;;1.73;;
50225;SDS011;36113;50.742;6.432;2023-07-20T08:31:48;3.05;;;2.10;;
50225;SDS011;36113;50.742;6.432;2023-07-20T08:34:14;3.47;;;2.83;;
50225;SDS011;36113;50.742;6.432;2023-07-20T08:36:39;2.60;;;2.40;;
50225;SDS011;36113;50.742;6.432;2023-07-20T08:39:04;3.73;;;2.47;;
50225;SDS011;36113;50.742;6.432;2023-07-20T08:41:30;2.90;;;2.60;;
50225;SDS011;36113;50.742;6.432;2023-07-20T08:43:56;3.53;;;2.97;;
50225;SDS011;36113;50.742;6.432;2023-07-20T08:46:22;3.33;;;2.58;;
50225;SDS011;36113;50.742;6.432;2023-07-20T08:48:48;3.72;;;3.05;;
50225;SDS011;36113;50.742;6.432;2023-07-20T08:51:14;3.17;;;2.55;;
50225;SDS011;36113;50.742;6.432;2023-07-20T08:53:40;5.45;;;3.05;;
50225;SDS011;36113;50.742;6.432;2023-07-20T08:56:06;4.10;;;2.70;;
50225;SDS011;36113;50.742;6.432;2023-07-20T08:58:35;3.20;;;2.58;;
50225;SDS011;36113;50.742;6.432;2023-07-20T09:01:02;2.92;;;2.67;;
50225;SDS011;36113;50.742;6.432;2023-07-20T09:03:28;2.67;;;2.47;;
50225;SDS011;36113;50.742;6.432;2023-07-20T09:05:53;2.60;;;1.90;;
50225;SDS011;36113;50.742;6.432;2023-07-20T09:08:19;3.13;;;2.30;;
50225;SDS011;36113;50.742;6.432;2023-07-20T09:10:44;1.90;;;1.80;;
50225;SDS011;36113;50.742;6.432;2023-07-20T09:13:13;4.33;;;2.10;;
50225;SDS011;36113;50.742;6.432;2023-07-20T09:15:39;3.28;;;1.90;;
50225;SDS011;36113;50.742;6.432;2023-07-20T09:18:11;1.95;;;1.85;;
50225;SDS011;36113;50.742;6.432;2023-07-20T09:20:36;3.00;;;1.90;;
50225;SDS011;36113;50.742;6.432;2023-07-20T09:23:04;5.03;;;1.90;;
50225;SDS011;36113;50.742;6.432;2023-07-20T09:25:31;3.67;;;1.50;;
50225;SDS011;36113;50.742;6.432;2023-07-20T09:27:56;2.00;;;1.87;;
50225;SDS011;36113;50.742;6.432;2023-07-20T09:30:24;2.10;;;2.00;;
50225;SDS011;36113;50.742;6.432;2023-07-20T09:32:50;2.65;;;1.55;;
50225;SDS011;36113;50.742;6.432;2023-07-20T09:35:22;2.57;;;1.77;;
50225;SDS011;36113;50.742;6.432;2023-07-20T09:37:57;2.00;;;1.52;;
50225;SDS011;36113;50.742;6.432;2023-07-20T09:40:24;1.63;;;1.52;;
50225;SDS011;36113;50.742;6.432;2023-07-20T09:42:53;3.08;;;1.80;;
50225;SDS011;36113;50.742;6.432;2023-07-20T09:45:41;2.20;;;2.03;;
50225;SDS011;36113;50.742;6.432;2023-07-20T09:48:07;4.68;;;1.95;;
50225;SDS011;36113;50.742;6.432;2023-07-20T09:50:39;5.65;;;1.85;;
50225;SDS011;36113;50.742;6.432;2023-07-20T09:53:07;3.53;;;1.83;;
50225;SDS011;36113;50.742;6.432;2023-07-20T09:55:34;4.10;;;2.00;;
50225;SDS011;36113;50.742;6.432;2023-07-20T09:58:00;1.73;;;1.60;;
50225;SDS011;36113;50.742;6.432;2023-07-20T10:00:25;2.57;;;1.60;;
50225;SDS011;36113;50.742;6.432;2023-07-20T10:02:51;1.77;;;1.63;;
50225;SDS011;36113;50.742;6.432;2023-07-20T10:05:17;1.80;;;1.70;;
50225;SDS011;36113;50.742;6.432;2023-07-20T10:07:46;3.40;;;1.83;;
50225;SDS011;36113;50.742;6.432;2023-07-20T10:10:13;1.50;;;1.40;;
50225;SDS011;36113;50.742;6.432;2023-07-20T10:12:52;2.25;;;1.35;;
50225;SDS011;36113;50.742;6.432;2023-07-20T10:15:19;1.52;;;1.42;;
50225;SDS011;36113;50.742;6.432;2023-07-20T10:18:07;2.90;;;1.48;;
50225;SDS011;36113;50.742;6.432;2023-07-20T10:20:38;2.20;;;2.08;;
50225;SDS011;36113;50.742;6.432;2023-07-20T10:23:06;2.83;;;1.83;;
50225;SDS011;36113;50.742;6.432;2023-07-20T10:25:32;2.00;;;1.90;;
50225;SDS011;36113;50.742;6.432;2023-07-20T10:28:02;2.10;;;2.00;;
50225;SDS011;36113;50.742;6.432;2023-07-20T10:30:33;2.67;;;1.92;;
50225;SDS011;36113;50.742;6.432;2023-07-20T10:33:01;1.52;;;1.52;;
50225;SDS011;36113;50.742;6.432;2023-07-20T10:35:28;3.47;;;1.90;;
50225;SDS011;36113;50.742;6.432;2023-07-20T10:40:38;2.40;;;1.90;;
50225;SDS011;36113;50.742;6.432;2023-07-20T10:43:06;1.58;;;1.58;;
50225;SDS011;36113;50.742;6.432;2023-07-20T10:50:28;1.83;;;1.70;;
50225;SDS011;36113;50.742;6.432;2023-07-20T10:55:39;2.25;;;1.92;;
50225;SDS011;36113;50.742;6.432;2023-07-20T10:58:09;1.90;;;1.80;;
50225;SDS011;36113;50.742;6.432;2023-07-20T11:00:36;2.10;;;2.00;;
50225;SDS011;36113;50.742;6.432;2023-07-20T11:03:02;1.93;;;1.93;;
50225;SDS011;36113;50.742;6.432;2023-07-20T11:05:36;2.03;;;1.93;;
50225;SDS011;36113;50.742;6.432;2023-07-20T11:08:04;1.42;;;1.40;;
50225;SDS011;36113;50.742;6.432;2023-07-20T11:10:50;2.63;;;1.88;;
50225;SDS011;36113;50.742;6.432;2023-07-20T11:18:58;1.48;;;1.48;;
50225;SDS011;36113;50.742;6.432;2023-07-20T11:21:24;2.35;;;1.90;;
50225;SDS011;36113;50.742;6.432;2023-07-20T11:23:50;1.70;;;1.60;;
50225;SDS011;36113;50.742;6.432;2023-07-20T11:26:17;1.70;;;1.60;;
50225;SDS011;36113;50.742;6.432;2023-07-20T11:28:47;1.92;;;1.80;;
50225;SDS011;36113;50.742;6.432;2023-07-20T11:31:14;2.42;;;1.80;;
50225;SDS011;36113;50.742;6.432;2023-07-20T11:33:41;2.75;;;1.83;;
50225;SDS011;36113;50.742;6.432;2023-07-20T11:36:08;3.55;;;1.77;;
50225;SDS011;36113;50.742;6.432;2023-07-20T11:38:34;2.00;;;1.90;;
50225;SDS011;36113;50.742;6.432;2023-07-20T11:40:59;6.10;;;1.90;;
50225;SDS011;36113;50.742;6.432;2023-07-20T11:43:25;1.70;;;1.60;;
50225;SDS011;36113;50.742;6.432;2023-07-20T11:45:51;1.77;;;1.30;;
50225;SDS011;36113;50.742;6.432;2023-07-20T11:48:16;4.27;;;1.77;;
50225;SDS011;36113;50.742;6.432;2023-07-20T11:50:42;5.30;;;1.50;;
50225;SDS011;36113;50.742;6.432;2023-07-20T11:53:08;2.37;;;1.77;;
50225;SDS011;36113;50.742;6.432;2023-07-20T11:55:33;1.80;;;1.70;;
50225;SDS011;36113;50.742;6.432;2023-07-20T11:58:02;1.60;;;1.50;;
50225;SDS011;36113;50.742;6.432;2023-07-20T12:00:34;2.33;;;1.70;;
50225;SDS011;36113;50.742;6.432;2023-07-20T12:03:04;1.63;;;1.52;;
50225;SDS011;36113;50.742;6.432;2023-07-20T12:05:31;1.63;;;1.52;;
50225;SDS011;36113;50.742;6.432;2023-07-20T12:07:57;1.47;;;1.47;;
50225;SDS011;36113;50.742;6.432;2023-07-20T12:10:25;1.63;;;1.20;;
50225;SDS011;36113;50.742;6.432;2023-07-20T12:12:52;1.52;;;1.40;;
50225;SDS011;36113;50.742;6.432;2023-07-20T12:17:55;1.30;;;1.20;;
50225;SDS011;36113;50.742;6.432;2023-07-20T12:20:28;1.30;;;1.27;;
50225;SDS011;36113;50.742;6.432;2023-07-20T12:23:05;1.30;;;1.20;;
50225;SDS011;36113;50.742;6.432;2023-07-20T12:25:40;1.25;;;1.25;;
50225;SDS011;36113;50.742;6.432;2023-07-20T12:28:10;1.45;;;1.35;;
50225;SDS011;36113;50.742;6.432;2023-07-20T12:30:38;1.67;;;1.20;;
50225;SDS011;36113;50.742;6.432;2023-07-20T12:33:04;0.80;;;0.80;;
50225;SDS011;36113;50.742;6.432;2023-07-20T12:35:30;4.20;;;1.37;;
50225;SDS011;36113;50.742;6.432;2023-07-20T12:37:56;4.65;;;1.40;;
50225;SDS011;36113;50.742;6.432;2023-07-20T12:40:21;1.33;;;1.23;;
50225;SDS011;36113;50.742;6.432;2023-07-20T12:42:47;2.20;;;1.33;;
50225;SDS011;36113;50.742;6.432;2023-07-20T12:45:13;1.73;;;1.27;;
50225;SDS011;36113;50.742;6.432;2023-07-20T12:47:38;1.58;;;1.48;;
50225;SDS011;36113;50.742;6.432;2023-07-20T12:50:04;1.67;;;1.57;;
50225;SDS011;36113;50.742;6.432;2023-07-20T12:52:31;3.35;;;1.38;;
50225;SDS011;36113;50.742;6.432;2023-07-20T12:54:56;1.57;;;1.00;;
50225;SDS011;36113;50.742;6.432;2023-07-20T12:57:22;1.20;;;1.03;;
50225;SDS011;36113;50.742;6.432;2023-07-20T12:59:47;0.90;;;0.90;;
50225;SDS011;36113;50.742;6.432;2023-07-20T13:02:13;1.67;;;0.93;;
50225;SDS011;36113;50.742;6.432;2023-07-20T13:04:38;1.20;;;1.20;;
50225;SDS011;36113;50.742;6.432;2023-07-20T13:07:03;2.50;;;1.17;;
50225;SDS011;36113;50.742;6.432;2023-07-20T13:09:29;1.10;;;1.10;;
50225;SDS011;36113;50.742;6.432;2023-07-20T13:11:54;1.87;;;1.00;;
50225;SDS011;36113;50.742;6.432;2023-07-20T13:14:19;3.63;;;1.20;;
50225;SDS011;36113;50.742;6.432;2023-07-20T13:16:45;1.63;;;1.00;;
50225;SDS011;36113;50.742;6.432;2023-07-20T13:19:10;1.20;;;1.20;;
50225;SDS011;36113;50.742;6.432;2023-07-20T13:21:35;1.07;;;1.07;;
50225;SDS011;36113;50.742;6.432;2023-07-20T13:24:00;0.90;;;0.90;;
50225;SDS011;36113;50.742;6.432;2023-07-20T13:26:26;1.10;;;1.00;;
50225;SDS011;36113;50.742;6.432;2023-07-20T13:28:52;1.20;;;1.17;;
50225;SDS011;36113;50.742;6.432;2023-07-20T13:31:17;1.30;;;1.20;;
50225;SDS011;36113;50.742;6.432;2023-07-20T13:33:43;1.10;;;1.10;;
50225;SDS011;36113;50.742;6.432;2023-07-20T13:36:08;1.40;;;1.30;;
50225;SDS011;36113;50.742;6.432;2023-07-20T13:38:34;1.40;;;1.23;;
50225;SDS011;36113;50.742;6.432;2023-07-20T13:40:59;1.13;;;1.13;;
50225;SDS011;36113;50.742;6.432;2023-07-20T13:43:24;1.73;;;1.00;;
50225;SDS011;36113;50.742;6.432;2023-07-20T13:45:50;1.00;;;1.00;;
50225;SDS011;36113;50.742;6.432;2023-07-20T13:48:15;0.93;;;0.93;;
50225;SDS011;36113;50.742;6.432;2023-07-20T13:50:44;1.75;;;1.02;;
50225;SDS011;36113;50.742;6.432;2023-07-20T13:53:09;1.23;;;1.13;;
50225;SDS011;36113;50.742;6.432;2023-07-20T13:55:34;1.33;;;1.23;;
50225;SDS011;36113;50.742;6.432;2023-07-20T13:58:02;1.75;;;1.23;;
50225;SDS011;36113;50.742;6.432;2023-07-20T14:00:27;1.00;;;1.00;;
50225;SDS011;36113;50.742;6.432;2023-07-20T14:02:57;1.35;;;1.23;;
50225;SDS011;36113;50.742;6.432;2023-07-20T14:05:23;1.00;;;0.90;;
50225;SDS011;36113;50.742;6.432;2023-07-20T14:07:48;1.70;;;0.77;;
50225;SDS011;36113;50.742;6.432;2023-07-20T14:12:40;1.23;;;1.20;;
50225;SDS011;36113;50.742;6.432;2023-07-20T14:15:05;0.90;;;0.90;;
50225;SDS011;36113;50.742;6.432;2023-07-20T14:17:31;0.90;;;0.87;;
50225;SDS011;36113;50.742;6.432;2023-07-20T14:19:56;4.20;;;1.20;;
50225;SDS011;36113;50.742;6.432;2023-07-20T14:22:21;1.00;;;0.90;;
50225;SDS011;36113;50.742;6.432;2023-07-20T14:24:48;3.03;;;1.10;;
50225;SDS011;36113;50.742;6.432;2023-07-20T14:27:13;0.77;;;0.77;;
50225;SDS011;36113;50.742;6.432;2023-07-20T14:29:38;1.10;;;1.07;;
50225;SDS011;36113;50.742;6.432;2023-07-20T14:32:04;0.93;;;0.93;;
50225;SDS011;36113;50.742;6.432;2023-07-20T14:34:31;1.80;;;1.05;;
50225;SDS011;36113;50.742;6.432;2023-07-20T14:36:58;0.80;;;0.80;;
50225;SDS011;36113;50.742;6.432;2023-07-20T14:39:24;0.90;;;0.90;;
50225;SDS011;36113;50.742;6.432;2023-07-20T14:41:50;0.93;;;0.93;;
50225;SDS011;36113;50.742;6.432;2023-07-20T14:44:16;1.17;;;1.15;;
50225;SDS011;36113;50.742;6.432;2023-07-20T14:46:41;1.20;;;1.10;;
50225;SDS011;36113;50.742;6.432;2023-07-20T14:49:06;2.83;;;1.10;;
50225;SDS011;36113;50.742;6.432;2023-07-20T14:51:32;1.53;;;1.30;;
50225;SDS011;36113;50.742;6.432;2023-07-20T14:53:58;1.40;;;1.30;;
50225;SDS011;36113;50.742;6.432;2023-07-20T14:56:24;0.90;;;0.90;;
50225;SDS011;36113;50.742;6.432;2023-07-20T14:58:50;0.87;;;0.87;;
50225;SDS011;36113;50.742;6.432;2023-07-20T15:01:15;0.90;;;0.90;;
50225;SDS011;36113;50.742;6.432;2023-07-20T15:03:40;3.10;;;0.90;;
50225;SDS011;36113;50.742;6.432;2023-07-20T15:06:10;1.97;;;0.80;;
50225;SDS011;36113;50.742;6.432;2023-07-20T15:08:36;0.98;;;0.98;;
50225;SDS011;36113;50.742;6.432;2023-07-20T15:11:01;1.80;;;1.03;;
50225;SDS011;36113;50.742;6.432;2023-07-20T15:13:27;0.90;;;0.90;;
50225;SDS011;36113;50.742;6.432;2023-07-20T15:15:52;0.90;;;0.90;;